Time;durP1;ratioP1;P1;durP2;ratioP2;P2;SDS_P1;SDS_P2;PMS_P1;PMS_P2;Temp;Humidity;BMP_temperature;BMP_pressure;BME280_temperature;BME280_humidity;BME280_pressure;Samples;Min_cycle;Max_cycle;Signal;HPM_P1;HPM_P2
2024/01/02 00:01:55;;;;;;;18.40;2.65;;;;;;;9.63;100.00;99076.88;4998741;28;20133;-75
2024/01/02 00:04:20;;;;;;;18.05;2.20;;;;;;;9.66;100.00;99071.84;5034963;28;20105;-75
2024/01/02 00:06:49;;;;;;;23.83;2.58;;;;;;;9.66;100.00;99075.41;5035162;28;20036;-75
2024/01/02 00:09:15;;;;;;;16.95;2.40;;;;;;;9.64;100.00;99069.41;5027456;28;20535;-75
2024/01/02 00:11:42;;;;;;;16.70;2.05;;;;;;;9.66;100.00;99078.19;5034812;28;20116;-75
2024/01/02 00:14:07;;;;;;;14.77;2.45;;;;;;;9.65;100.00;99072.97;5034907;28;20026;-75
2024/01/02 00:16:32;;;;;;;12.40;2.08;;;;;;;9.66;100.00;99069.88;5035640;28;20032;-75
2024/01/02 00:18:58;;;;;;;16.17;2.50;;;;;;;9.67;100.00;99073.44;5034808;28;20080;-76
2024/01/02 00:21:24;;;;;;;15.18;2.28;;;;;;;9.69;100.00;99057.31;4998935;28;20029;-75
2024/01/02 00:23:49;;;;;;;10.95;1.80;;;;;;;9.69;100.00;99062.88;5034584;28;20033;-75
2024/01/02 00:26:15;;;;;;;15.88;1.98;;;;;;;9.74;100.00;99068.25;5032353;28;20029;-76
2024/01/02 00:28:40;;;;;;;13.18;2.00;;;;;;;9.73;100.00;99061.09;4998630;28;20036;-75
2024/01/02 00:31:07;;;;;;;13.88;2.03;;;;;;;9.70;100.00;99070.88;5017965;28;20069;-76
2024/01/02 00:33:33;;;;;;;14.60;2.00;;;;;;;9.69;100.00;99060.91;5035429;28;20045;-76
2024/01/02 00:35:58;;;;;;;18.75;2.00;;;;;;;9.73;100.00;99077.72;5036998;28;20465;-76
2024/01/02 00:38:27;;;;;;;13.20;1.75;;;;;;;9.75;100.00;99069.88;5040314;28;20036;-76
2024/01/02 00:40:52;;;;;;;14.45;2.15;;;;;;;9.75;100.00;99067.09;4998829;28;20495;-76
2024/01/02 00:43:18;;;;;;;10.55;2.13;;;;;;;9.73;100.00;99072.19;5032412;28;20053;-75
2024/01/02 00:45:44;;;;;;;10.20;1.60;;;;;;;9.73;100.00;99063.88;5019444;28;20033;-75
2024/01/02 00:48:10;;;;;;;11.10;2.40;;;;;;;9.73;100.00;99072.19;5034403;28;20026;-75
2024/01/02 00:50:36;;;;;;;13.18;1.90;;;;;;;9.74;100.00;99059.94;5014578;28;20061;-75
2024/01/02 00:53:04;;;;;;;14.02;1.77;;;;;;;9.76;100.00;99064.03;5045816;28;20041;-76
2024/01/02 00:55:29;;;;;;;9.48;1.58;;;;;;;9.74;100.00;99062.72;4998637;28;20117;-75
2024/01/02 00:57:55;;;;;;;13.55;1.70;;;;;;;9.76;100.00;99052.94;5029857;28;20565;-75
2024/01/02 01:00:20;;;;;;;9.02;1.60;;;;;;;9.76;100.00;99058.47;5017450;28;20125;-75
2024/01/02 01:02:46;;;;;;;12.25;1.95;;;;;;;9.76;100.00;99055.72;5016363;28;20034;-76
2024/01/02 01:05:12;;;;;;;11.65;1.63;;;;;;;9.78;100.00;99055.41;5050979;28;20045;-75
2024/01/02 01:07:37;;;;;;;10.15;1.50;;;;;;;9.75;100.00;99061.56;5033885;28;20029;-75
2024/01/02 01:10:03;;;;;;;10.25;1.45;;;;;;;9.77;100.00;99056.53;5025511;28;20478;-75
2024/01/02 01:12:28;;;;;;;7.60;1.70;;;;;;;9.78;100.00;99047.88;5016665;28;20060;-75
2024/01/02 01:14:54;;;;;;;12.40;1.77;;;;;;;9.79;100.00;99043.16;5017592;28;20048;-75
2024/01/02 01:17:19;;;;;;;11.90;1.50;;;;;;;9.83;100.00;99052.44;5016137;28;20041;-76
2024/01/02 01:19:45;;;;;;;4.93;1.20;;;;;;;9.81;100.00;99036.16;5035122;28;20042;-75
2024/01/02 01:22:11;;;;;;;8.05;1.25;;;;;;;9.82;100.00;99048.88;5017607;28;20033;-76
2024/01/02 01:24:36;;;;;;;12.82;1.33;;;;;;;9.82;100.00;99057.19;5035248;28;20523;-75
2024/01/02 01:27:02;;;;;;;7.95;1.20;;;;;;;9.81;100.00;99051.97;5032687;28;20513;-75
2024/01/02 01:29:27;;;;;;;6.50;1.00;;;;;;;9.84;100.00;99049.38;5019860;28;20025;-75
2024/01/02 01:31:53;;;;;;;8.05;1.38;;;;;;;9.83;100.00;99042.19;5001228;28;20033;-76
2024/01/02 01:34:19;;;;;;;8.57;1.42;;;;;;;9.87;100.00;99042.34;5017373;28;20029;-76
2024/01/02 01:36:44;;;;;;;7.32;0.88;;;;;;;9.86;100.00;99040.69;5010045;28;20024;-75
2024/01/02 01:39:10;;;;;;;6.00;1.38;;;;;;;9.84;100.00;99041.03;5035288;28;20355;-76
2024/01/02 01:41:35;;;;;;;8.63;1.33;;;;;;;9.84;100.00;99026.38;5014374;28;20030;-75
2024/01/02 01:44:01;;;;;;;7.07;1.17;;;;;;;9.86;100.00;99040.69;5013349;28;20038;-75
2024/01/02 01:46:33;;;;;;;7.45;1.33;;;;;;;9.88;100.00;99041.19;5030975;28;20057;-75
2024/01/02 01:48:59;;;;;;;9.10;1.58;;;;;;;9.86;100.00;99026.84;5038806;28;20067;-75
2024/01/02 01:51:24;;;;;;;11.07;1.38;;;;;;;9.86;100.00;99026.84;5038942;28;20030;-75
2024/01/02 01:53:50;;;;;;;6.45;1.08;;;;;;;9.88;100.00;99027.34;5017702;28;20034;-75
2024/01/02 01:56:15;;;;;;;4.45;0.85;;;;;;;9.87;100.00;99024.91;5033071;28;20052;-75
2024/01/02 01:58:41;;;;;;;6.72;1.02;;;;;;;9.86;100.00;99018.53;5020720;28;20477;-75
2024/01/02 02:01:07;;;;;;;5.80;0.98;;;;;;;9.89;100.00;99015.13;5036987;28;20056;-75
2024/01/02 02:03:33;;;;;;;10.50;1.30;;;;;;;9.90;100.00;99008.41;5017261;28;20116;-75
2024/01/02 02:05:58;;;;;;;6.88;1.38;;;;;;;9.91;100.00;99017.56;5032220;28;20515;-75
2024/01/02 02:08:24;;;;;;;5.97;1.00;;;;;;;9.91;100.00;99014.78;5017264;28;20033;-75
2024/01/02 02:10:49;;;;;;;10.88;1.73;;;;;;;9.91;100.00;99018.34;5031840;28;20029;-75
2024/01/02 02:13:15;;;;;;;9.32;1.63;;;;;;;9.93;100.00;99018.06;5020884;28;20406;-75
2024/01/02 02:15:42;;;;;;;7.47;1.00;;;;;;;9.90;100.00;99030.59;5004212;28;20029;-76
2024/01/02 02:18:08;;;;;;;8.43;1.20;;;;;;;9.92;100.00;99025.56;5037043;28;20093;-76
2024/01/02 02:20:33;;;;;;;8.80;1.58;;;;;;;9.92;100.00;99028.34;5036746;28;20465;-75
2024/01/02 02:22:59;;;;;;;8.82;1.30;;;;;;;9.93;100.00;99027.19;5037874;28;20029;-75
2024/01/02 02:25:24;;;;;;;14.57;1.92;;;;;;;9.92;100.00;99025.56;5035871;28;20470;-75
2024/01/02 02:27:50;;;;;;;8.95;1.40;;;;;;;9.95;100.00;99015.78;5034561;28;20113;-76
2024/01/02 02:30:16;;;;;;;13.00;1.42;;;;;;;9.95;100.00;99024.91;5016653;28;20038;-76
2024/01/02 02:32:41;;;;;;;10.77;1.77;;;;;;;9.95;100.00;99022.13;5020438;28;20108;-75
2024/01/02 02:35:08;;;;;;;14.00;1.77;;;;;;;9.98;100.00;99020.66;5017262;28;20034;-75
2024/01/02 02:37:33;;;;;;;9.93;1.63;;;;;;;10.00;100.00;99019.19;5028485;28;20033;-75
2024/01/02 02:39:59;;;;;;;12.35;1.73;;;;;;;10.00;100.00;99027.53;5004129;28;20029;-76
2024/01/02 02:42:24;;;;;;;10.85;1.42;;;;;;;10.03;100.00;99026.88;5036779;28;20025;-75
2024/01/02 02:44:50;;;;;;;15.98;2.67;;;;;;;10.01;100.00;99018.03;5037562;28;20039;-75
2024/01/02 02:47:15;;;;;;;13.32;1.98;;;;;;;10.04;100.00;99011.03;5016665;28;20037;-75
2024/01/02 02:49:42;;;;;;;13.05;2.15;;;;;;;10.04;100.00;99020.16;5019897;28;20524;-75
2024/01/02 02:52:07;;;;;;;13.20;2.40;;;;;;;10.07;100.00;99013.16;5037664;28;20041;-75
2024/01/02 02:54:33;;;;;;;14.50;2.17;;;;;;;10.04;100.00;99013.81;5000952;28;20073;-75
2024/01/02 02:57:02;;;;;;;15.45;2.17;;;;;;;10.03;100.00;99004.66;5000732;28;20092;-75
2024/01/02 02:59:27;;;;;;;18.80;2.00;;;;;;;10.05;100.00;99002.38;5030778;28;20545;-75
2024/01/02 03:01:53;;;;;;;19.70;2.25;;;;;;;10.06;100.00;99001.25;5000099;28;20042;-75
2024/01/02 03:04:19;;;;;;;15.30;2.20;;;;;;;10.05;100.00;98993.22;5031015;28;20026;-75
2024/01/02 03:06:44;;;;;;;15.57;2.08;;;;;;;10.08;100.00;98992.56;5036222;28;20030;-75
2024/01/02 03:09:12;;;;;;;13.20;2.28;;;;;;;10.08;100.00;98984.25;5028417;28;20045;-75
2024/01/02 03:11:38;;;;;;;17.45;2.03;;;;;;;10.09;100.00;98982.31;5037221;28;20033;-75
2024/01/02 03:14:04;;;;;;;14.65;2.03;;;;;;;10.10;100.00;98981.97;5019556;28;20072;-75
2024/01/02 03:16:29;;;;;;;13.45;3.05;;;;;;;10.11;100.00;98991.09;5019390;28;20029;-75
2024/01/02 03:18:55;;;;;;;18.00;2.35;;;;;;;10.14;100.00;98982.13;5021542;28;20048;-75
2024/01/02 03:21:27;;;;;;;12.05;1.80;;;;;;;10.16;100.00;98986.22;5035929;28;20034;-75
2024/01/02 03:23:54;;;;;;;16.92;1.95;;;;;;;10.15;100.00;98975.47;5035972;28;20034;-75
2024/01/02 03:26:20;;;;;;;12.43;2.10;;;;;;;10.17;100.00;98981.47;5017041;28;20030;-75
2024/01/02 03:28:46;;;;;;;9.75;1.60;;;;;;;10.19;100.00;98976.41;5035928;28;20040;-75
2024/01/02 03:31:12;;;;;;;15.82;2.00;;;;;;;10.19;100.00;98970.88;5035520;28;20091;-75
2024/01/02 03:33:37;;;;;;;15.40;2.75;;;;;;;10.19;100.00;98965.31;5035948;28;20083;-75
2024/01/02 03:36:03;;;;;;;11.52;1.88;;;;;;;10.23;100.00;98966.31;5038651;28;20032;-75
2024/01/02 03:38:29;;;;;;;11.57;1.80;;;;;;;10.20;100.00;98956.69;5041610;28;20032;-76
2024/01/02 03:40:55;;;;;;;14.23;1.83;;;;;;;10.21;100.00;98946.38;5035464;28;20514;-75
2024/01/02 03:43:22;;;;;;;15.40;1.98;;;;;;;10.23;100.00;98941.34;5035623;28;20077;-75
2024/01/02 03:45:47;;;;;;;13.90;2.00;;;;;;;10.24;100.00;98942.94;5019110;28;20049;-75
2024/01/02 03:48:13;;;;;;;9.52;1.40;;;;;;;10.25;100.00;98925.16;5035130;28;20026;-75
2024/01/02 03:50:39;;;;;;;14.20;1.40;;;;;;;10.27;100.00;98917.34;4999435;28;20034;-75
2024/01/02 03:53:04;;;;;;;11.57;1.60;;;;;;;10.28;100.00;98910.69;5029616;28;20087;-75
2024/01/02 03:55:30;;;;;;;11.05;1.42;;;;;;;10.29;100.00;98910.31;5015647;28;20029;-75
2024/01/02 03:57:55;;;;;;;8.25;1.20;;;;;;;10.30;100.00;98900.03;5030825;28;20041;-75
2024/01/02 04:00:21;;;;;;;7.18;1.48;;;;;;;10.33;100.00;98907.69;5034909;28;20029;-75
2024/01/02 04:02:46;;;;;;;6.72;1.27;;;;;;;10.30;100.00;98902.81;5035267;28;20093;-76
2024/01/02 04:05:12;;;;;;;12.23;1.13;;;;;;;10.29;100.00;98890.09;5018340;28;20029;-75
2024/01/02 04:07:38;;;;;;;5.90;1.10;;;;;;;10.29;100.00;98887.31;5034353;28;20029;-76
2024/01/02 04:10:04;;;;;;;8.27;1.13;;;;;;;10.33;100.00;98881.91;5012835;28;20022;-75
2024/01/02 04:12:29;;;;;;;6.57;0.85;;;;;;;10.37;100.00;98883.69;5016551;28;20113;-75
2024/01/02 04:14:55;;;;;;;5.85;1.02;;;;;;;10.35;100.00;98874.06;4998659;28;20056;-75
2024/01/02 04:17:21;;;;;;;9.43;0.98;;;;;;;10.37;100.00;98878.16;5036341;28;20064;-75
2024/01/02 04:19:46;;;;;;;6.00;0.88;;;;;;;10.34;100.00;98876.03;5035843;28;20056;-75
2024/01/02 04:22:12;;;;;;;10.18;1.00;;;;;;;10.36;100.00;98875.69;5034812;28;20033;-75
2024/01/02 04:24:38;;;;;;;5.05;0.45;;;;;;;10.38;100.00;98874.22;5051082;28;20030;-75
2024/01/02 04:27:03;;;;;;;8.88;0.95;;;;;;;10.38;100.00;98867.88;5033340;28;20044;-75
2024/01/02 04:29:29;;;;;;;6.18;1.17;;;;;;;10.38;100.00;98863.13;5034485;28;20079;-75
2024/01/02 04:31:54;;;;;;;3.45;0.93;;;;;;;10.40;100.00;98874.72;5018419;28;20081;-75
2024/01/02 04:34:20;;;;;;;5.72;0.63;;;;;;;10.39;100.00;98867.53;5034388;28;20080;-75
2024/01/02 04:36:45;;;;;;;5.00;0.65;;;;;;;10.41;100.00;98864.41;5044418;28;20132;-75
2024/01/02 04:39:11;;;;;;;5.47;0.73;;;;;;;10.41;100.00;98845.78;5034814;28;20480;-75
2024/01/02 04:41:36;;;;;;;5.25;0.70;;;;;;;10.39;100.00;98839.78;5034474;28;20036;-75
2024/01/02 04:44:01;;;;;;;4.60;0.70;;;;;;;10.39;100.00;98848.13;4998212;28;20036;-75
2024/01/02 04:46:27;;;;;;;8.75;0.82;;;;;;;10.41;100.00;98840.25;4998678;28;20033;-75
2024/01/02 04:48:54;;;;;;;6.63;1.00;;;;;;;10.44;100.00;98844.31;5035587;28;20033;-75
2024/01/02 04:51:20;;;;;;;6.25;0.75;;;;;;;10.42;100.00;98846.59;5020684;28;20646;-75
2024/01/02 04:53:46;;;;;;;6.18;1.10;;;;;;;10.43;100.00;98829.63;5034304;28;20087;-75
2024/01/02 04:56:11;;;;;;;4.85;0.47;;;;;;;10.46;100.00;98845.63;5035403;28;20021;-76
2024/01/02 04:58:37;;;;;;;5.38;0.57;;;;;;;10.45;100.00;98830.13;5014332;28;20037;-75
2024/01/02 05:01:03;;;;;;;6.25;0.75;;;;;;;10.47;100.00;98816.72;5028989;28;20406;-75
2024/01/02 05:03:29;;;;;;;6.45;0.60;;;;;;;10.46;100.00;98820.63;5014435;28;20432;-75
2024/01/02 05:05:54;;;;;;;4.55;0.50;;;;;;;10.48;100.00;98818.34;5061350;28;20040;-75
2024/01/02 05:08:20;;;;;;;7.75;1.00;;;;;;;10.48;100.00;98812.00;5030748;28;20034;-75
2024/01/02 05:10:46;;;;;;;2.70;0.50;;;;;;;10.49;100.00;98819.97;5018764;28;20096;-75
2024/01/02 05:13:11;;;;;;;4.43;0.80;;;;;;;10.51;100.00;98819.66;5017468;28;20026;-75
2024/01/02 05:15:36;;;;;;;10.45;1.00;;;;;;;10.48;100.00;98812.00;5035101;28;20029;-75
2024/01/02 05:18:02;;;;;;;5.93;0.98;;;;;;;10.49;100.00;98814.41;5035176;28;20034;-75
2024/01/02 05:20:28;;;;;;;7.07;0.80;;;;;;;10.52;100.00;98815.72;5036806;28;20037;-75
2024/01/02 05:22:53;;;;;;;4.35;0.77;;;;;;;10.51;100.00;98811.31;5039397;28;20128;-75
2024/01/02 05:25:19;;;;;;;4.70;0.73;;;;;;;10.52;100.00;98815.72;5037113;28;20030;-75
2024/01/02 05:27:45;;;;;;;4.00;0.57;;;;;;;10.50;100.00;98813.28;5038238;28;20033;-75
2024/01/02 05:30:11;;;;;;;4.10;0.55;;;;;;;10.50;100.00;98793.03;5018055;28;20034;-75
2024/01/02 05:32:37;;;;;;;4.60;0.70;;;;;;;10.50;100.00;98787.47;5018219;28;20030;-75
2024/01/02 05:35:02;;;;;;;4.10;0.57;;;;;;;10.51;100.00;98789.13;5032053;28;20029;-75
2024/01/02 05:37:28;;;;;;;3.33;0.57;;;;;;;10.51;100.00;98797.44;5047477;28;20026;-75
2024/01/02 05:39:56;;;;;;;3.58;0.68;;;;;;;10.51;100.00;98797.44;5039323;28;20041;-75
2024/01/02 05:42:22;;;;;;;5.88;0.65;;;;;;;10.52;100.00;98797.09;5018189;28;20095;-75
2024/01/02 05:44:47;;;;;;;3.40;0.57;;;;;;;10.51;100.00;98792.69;5032158;28;20034;-75
2024/01/02 05:47:13;;;;;;;5.82;0.60;;;;;;;10.59;100.00;98781.88;5037704;28;20512;-75
2024/01/02 05:49:38;;;;;;;2.70;0.50;;;;;;;10.55;100.00;98783.69;5021126;28;20068;-75
2024/01/02 05:52:04;;;;;;;4.50;0.77;;;;;;;10.55;100.00;98783.69;5037344;28;20029;-75
2024/01/02 05:54:33;;;;;;;5.32;1.10;;;;;;;10.52;100.00;98788.75;5001152;28;20033;-75
2024/01/02 05:57:00;;;;;;;8.18;0.93;;;;;;;10.57;100.00;98781.41;5020794;28;20033;-75
2024/01/02 05:59:25;;;;;;;6.25;0.77;;;;;;;10.57;100.00;98784.19;5004289;28;20088;-75
2024/01/02 06:01:51;;;;;;;7.25;0.80;;;;;;;10.58;100.00;98788.56;5038013;28;20029;-75
2024/01/02 06:04:16;;;;;;;6.72;0.90;;;;;;;10.55;100.00;98792.03;5037059;28;20036;-75
2024/01/02 06:06:42;;;;;;;7.10;1.10;;;;;;;10.58;100.00;98796.91;5038803;28;20037;-75
2024/01/02 06:09:08;;;;;;;8.55;1.13;;;;;;;10.56;100.00;98779.75;5027614;28;20030;-75
2024/01/02 06:11:34;;;;;;;4.47;0.75;;;;;;;10.57;100.00;98792.50;5038552;28;20168;-75
2024/01/02 06:14:00;;;;;;;10.10;1.45;;;;;;;10.57;100.00;98782.22;5037597;28;20033;-75
2024/01/02 06:16:26;;;;;;;5.25;0.73;;;;;;;10.57;100.00;98785.00;5017297;28;20056;-75
2024/01/02 06:18:51;;;;;;;11.40;1.50;;;;;;;10.60;100.00;98775.19;5037484;28;20045;-75
2024/01/02 06:21:17;;;;;;;8.77;1.15;;;;;;;10.57;100.00;98782.22;5035820;28;20604;-75
2024/01/02 06:23:42;;;;;;;6.95;0.80;;;;;;;10.60;100.00;98775.19;5017074;28;20034;-75
2024/01/02 06:26:08;;;;;;;7.63;1.20;;;;;;;10.58;100.00;98777.47;5035983;28;20508;-76
2024/01/02 06:28:33;;;;;;;10.50;1.25;;;;;;;10.58;100.00;98774.69;5037047;28;20037;-75
2024/01/02 06:31:05;;;;;;;10.35;1.27;;;;;;;10.60;100.00;98781.53;5003382;28;20037;-75
2024/01/02 06:33:31;;;;;;;9.68;1.20;;;;;;;10.60;100.00;98786.28;5017638;28;20026;-75
2024/01/02 06:35:56;;;;;;;7.13;1.35;;;;;;;10.61;100.00;98776.78;5038957;28;20466;-75
2024/01/02 06:38:22;;;;;;;6.50;0.98;;;;;;;10.58;100.00;98766.38;5042966;28;20057;-75
2024/01/02 06:40:47;;;;;;;11.15;1.75;;;;;;;10.60;100.00;98772.41;5038012;28;20033;-75
2024/01/02 06:43:14;;;;;;;7.72;1.25;;;;;;;10.60;100.00;98775.97;5036902;28;20026;-75
2024/01/02 06:45:40;;;;;;;12.70;1.58;;;;;;;10.61;100.00;98782.34;5022450;28;20477;-75
2024/01/02 06:48:06;;;;;;;9.77;1.63;;;;;;;10.62;100.00;98782.03;5036761;28;20037;-75
2024/01/02 06:50:31;;;;;;;6.97;1.30;;;;;;;10.65;100.00;98775.78;5016829;28;20026;-75
2024/01/02 06:52:57;;;;;;;13.27;1.45;;;;;;;10.66;100.00;98773.81;5031729;28;20025;-75
2024/01/02 06:55:22;;;;;;;14.13;1.80;;;;;;;10.68;100.00;98771.53;5016633;28;20398;-75
2024/01/02 06:57:48;;;;;;;12.95;1.70;;;;;;;10.63;100.00;98768.94;5031196;28;20617;-75
2024/01/02 07:00:13;;;;;;;11.98;1.50;;;;;;;10.59;100.00;98768.00;5035989;28;20026;-75
2024/01/02 07:02:39;;;;;;;9.77;1.27;;;;;;;10.61;100.00;98771.25;5016911;28;20093;-75
2024/01/02 07:05:06;;;;;;;11.48;1.65;;;;;;;10.63;100.00;98772.53;5037471;28;20079;-75
2024/01/02 07:07:32;;;;;;;8.48;1.65;;;;;;;10.63;100.00;98755.88;5036050;28;20036;-75
2024/01/02 07:09:58;;;;;;;11.25;1.70;;;;;;;10.60;100.00;98750.19;5010309;28;20025;-75
2024/01/02 07:12:24;;;;;;;15.80;1.88;;;;;;;10.60;100.00;98753.78;5017145;28;20030;-75
2024/01/02 07:14:49;;;;;;;10.82;1.50;;;;;;;10.62;100.00;98750.69;5016182;28;20073;-76
2024/01/02 07:17:19;;;;;;;12.15;1.90;;;;;;;10.57;100.00;98748.09;5030473;28;20549;-75
2024/01/02 07:19:45;;;;;;;11.10;1.92;;;;;;;10.59;100.00;98748.56;4999580;28;20121;-75
2024/01/02 07:22:11;;;;;;;12.93;1.65;;;;;;;10.59;100.00;98749.38;5027573;28;20030;-75
2024/01/02 07:24:36;;;;;;;7.07;1.48;;;;;;;10.60;100.00;98750.19;5069083;28;20028;-75
2024/01/02 07:27:02;;;;;;;11.85;1.77;;;;;;;10.61;100.00;98749.03;4999694;28;20030;-75
2024/01/02 07:29:28;;;;;;;6.75;1.27;;;;;;;10.62;100.00;98756.22;5036656;28;20033;-75
2024/01/02 07:31:53;;;;;;;12.13;1.98;;;;;;;10.65;100.00;98747.22;5036895;28;20029;-75
2024/01/02 07:34:19;;;;;;;10.60;1.40;;;;;;;10.61;100.00;98743.47;5036881;28;20080;-75
2024/01/02 07:36:47;;;;;;;8.43;2.00;;;;;;;10.64;100.00;98754.75;5044002;28;20033;-75
2024/01/02 07:39:12;;;;;;;11.13;1.75;;;;;;;10.63;100.00;98747.53;5016281;28;20395;-75
2024/01/02 07:41:38;;;;;;;10.20;1.40;;;;;;;10.65;100.00;98750.00;5045653;28;20034;-75
2024/01/02 07:44:04;;;;;;;10.75;1.45;;;;;;;10.65;100.00;98753.59;5035132;28;20030;-75
2024/01/02 07:46:29;;;;;;;11.40;1.60;;;;;;;10.64;100.00;98740.88;5035454;28;20064;-75
2024/01/02 07:48:55;;;;;;;10.15;1.77;;;;;;;10.64;100.00;98754.75;5035518;28;20390;-75
2024/01/02 07:51:21;;;;;;;8.98;2.00;;;;;;;10.63;100.00;98763.41;5035271;28;20151;-75
2024/01/02 07:53:46;;;;;;;9.07;1.40;;;;;;;10.63;100.00;98753.09;5018704;28;20025;-75
2024/01/02 07:56:12;;;;;;;14.18;1.90;;;;;;;10.67;100.00;98742.13;5033276;28;20037;-75
2024/01/02 07:58:37;;;;;;;10.73;2.22;;;;;;;10.64;100.00;98745.56;5035029;28;20049;-75
2024/01/02 08:01:03;;;;;;;14.20;2.50;;;;;;;10.65;100.00;98741.66;5002033;28;20021;-75
2024/01/02 08:03:28;;;;;;;15.30;2.83;;;;;;;10.66;100.00;98735.75;5018657;28;20033;-75
2024/01/02 08:05:54;;;;;;;12.85;2.13;;;;;;;10.70;100.00;98727.59;5036404;28;20029;-75
2024/01/02 08:08:19;;;;;;;12.32;2.70;;;;;;;10.68;100.00;98727.91;5031814;28;20026;-75
2024/01/02 08:10:45;;;;;;;17.48;2.60;;;;;;;10.68;100.00;98729.88;5025960;28;20376;-75
2024/01/02 08:13:10;;;;;;;12.45;2.65;;;;;;;10.68;100.00;98727.09;4998667;28;20057;-75
2024/01/02 08:15:36;;;;;;;12.70;2.33;;;;;;;10.69;100.00;98723.97;5029889;28;20040;-75
2024/01/02 08:18:01;;;;;;;14.15;1.98;;;;;;;10.68;100.00;98714.03;5036207;28;20029;-75
2024/01/02 08:20:27;;;;;;;17.25;2.80;;;;;;;10.69;100.00;98706.50;5034822;28;20104;-75
2024/01/02 08:22:53;;;;;;;13.80;2.20;;;;;;;10.71;100.00;98710.59;5018235;28;20029;-75
2024/01/02 08:25:23;;;;;;;17.42;2.25;;;;;;;10.73;100.00;98699.16;5033506;28;20087;-75
2024/01/02 08:27:48;;;;;;;22.95;2.53;;;;;;;10.73;100.00;98710.25;5034114;28;20037;-75
2024/01/02 08:30:14;;;;;;;11.57;2.50;;;;;;;10.73;100.00;98699.16;5014757;28;20041;-75
2024/01/02 08:32:39;;;;;;;14.45;2.30;;;;;;;10.77;100.00;98702.06;5034262;28;20044;-75
2024/01/02 08:35:05;;;;;;;12.57;2.92;;;;;;;10.75;100.00;98694.03;4998759;28;20033;-75
2024/01/02 08:37:31;;;;;;;12.75;2.20;;;;;;;10.78;100.00;98700.88;5050976;28;20037;-75
2024/01/02 08:39:56;;;;;;;16.25;2.83;;;;;;;10.79;100.00;98696.97;5035850;28;20029;-75
2024/01/02 08:42:22;;;;;;;9.85;2.20;;;;;;;10.76;100.00;98684.59;5001454;28;20029;-75
2024/01/02 08:44:47;;;;;;;16.63;2.53;;;;;;;10.79;100.00;98680.31;5015317;28;20479;-75
2024/01/02 08:47:13;;;;;;;14.43;2.47;;;;;;;10.77;100.00;98677.06;5023509;28;20038;-75
2024/01/02 08:49:39;;;;;;;13.93;2.58;;;;;;;10.80;100.00;98657.75;5034233;28;20040;-75
2024/01/02 08:52:05;;;;;;;13.32;2.67;;;;;;;10.81;100.00;98661.34;5028137;28;20049;-75
2024/01/02 08:54:31;;;;;;;15.73;2.20;;;;;;;10.79;100.00;98663.66;5014810;28;20036;-75
2024/01/02 08:56:56;;;;;;;16.77;2.28;;;;;;;10.81;100.00;98662.16;5034216;28;20029;-75
2024/01/02 08:59:22;;;;;;;17.23;2.30;;;;;;;10.85;100.00;98654.75;5034216;28;20033;-75
2024/01/02 09:01:51;;;;;;;17.63;2.38;;;;;;;10.82;100.00;98649.91;5034097;28;20052;-75
2024/01/02 09:04:17;;;;;;;17.75;2.33;;;;;;;10.84;100.00;98652.34;5034352;28;20406;-75
2024/01/02 09:06:42;;;;;;;15.48;2.95;;;;;;;10.89;100.00;98641.00;5017552;28;20029;-75
2024/01/02 09:09:08;;;;;;;11.75;2.40;;;;;;;10.86;100.00;98633.34;5025075;28;20471;-75
2024/01/02 09:11:34;;;;;;;11.95;2.70;;;;;;;10.92;100.00;98643.94;5035188;28;20056;-75
2024/01/02 09:14:00;;;;;;;21.65;2.38;;;;;;;10.92;100.00;98638.38;4998806;28;20021;-75
2024/01/02 09:16:31;;;;;;;19.48;2.70;;;;;;;10.91;100.00;98611.72;5029399;28;20034;-73
2024/01/02 09:18:58;;;;;;;12.23;1.88;;;;;;;10.92;100.00;98609.75;5035445;28;20498;-75
2024/01/02 09:21:24;;;;;;;13.02;2.22;;;;;;;10.91;100.00;98613.72;4997941;28;20049;-75
2024/01/02 09:23:49;;;;;;;16.10;2.40;;;;;;;10.92;100.00;98607.81;5060950;28;20474;-76
2024/01/02 09:26:16;;;;;;;13.25;2.03;;;;;;;10.94;100.00;98610.25;5013973;28;20030;-75
2024/01/02 09:28:42;;;;;;;9.18;1.90;;;;;;;10.93;100.00;98600.28;5014868;28;20029;-75
2024/01/02 09:31:08;;;;;;;14.32;2.15;;;;;;;10.92;100.00;98599.50;5016071;28;20391;-75
2024/01/02 09:33:33;;;;;;;15.10;2.00;;;;;;;10.93;100.00;98589.19;5032389;28;20033;-75
2024/01/02 09:35:59;;;;;;;12.85;1.58;;;;;;;10.90;100.00;98587.91;5019923;28;20075;-75
2024/01/02 09:38:24;;;;;;;13.13;1.58;;;;;;;10.93;100.00;98573.31;5020935;28;20065;-75
2024/01/02 09:41:21;;;;;;;11.25;1.73;;;;;;;10.99;100.00;98564.78;5034133;28;20025;-75
2024/01/02 09:43:49;;;;;;;11.23;1.55;;;;;;;10.95;100.00;98571.03;5033561;28;20428;-75
2024/01/02 09:46:17;;;;;;;11.15;1.60;;;;;;;10.99;100.00;98562.00;5034917;28;20041;-75
2024/01/02 09:49:09;;;;;;;13.20;1.58;;;;;;;10.96;100.00;98560.72;5034169;28;20041;-75
2024/01/02 09:52:09;;;;;;;6.27;1.47;;;;;;;10.99;100.00;98567.56;5034829;28;20099;-75
2024/01/02 09:55:14;;;;;;;12.05;1.33;;;;;;;11.00;100.00;98552.50;5030429;28;20282;-75
2024/01/02 09:57:45;;;;;;;8.45;1.20;;;;;;;10.98;100.00;98535.38;5025198;28;20045;-75
2024/01/02 10:00:17;;;;;;;7.00;1.40;;;;;;;11.01;100.00;98554.94;5015587;28;20510;-75
2024/01/02 10:03:11;;;;;;;9.65;1.80;;;;;;;11.02;100.00;98539.91;5034825;28;20061;-75
2024/01/02 10:05:39;;;;;;;;;;;;;;;11.03;100.00;98538.75;5021047;28;20486;-75
2024/01/02 10:08:41;;;;;;;7.63;1.55;;;;;;;11.04;100.00;98540.38;5061751;28;20038;-76
2024/01/02 10:11:07;;;;;;;8.45;1.35;;;;;;;11.01;100.00;98527.19;5033261;28;20052;-75
2024/01/02 10:13:59;;;;;;;8.25;1.08;;;;;;;11.05;100.00;98524.50;5037008;28;20041;-75
2024/01/02 10:16:34;;;;;;;7.60;1.40;;;;;;;11.07;100.00;98525.78;5007433;28;20568;-76
2024/01/02 10:19:30;;;;;;;12.25;1.88;;;;;;;11.06;100.00;98518.63;5038556;28;20505;-76
2024/01/02 10:22:24;;;;;;;12.82;2.08;;;;;;;11.09;100.00;98517.13;5029639;28;20037;-75
2024/01/02 10:24:56;;;;;;;14.93;1.98;;;;;;;11.06;100.00;98515.00;5037258;28;20032;-75
2024/01/02 10:27:49;;;;;;;14.02;1.55;;;;;;;11.09;100.00;98508.78;5032645;28;20827;-75
2024/01/02 10:30:19;;;;;;;11.00;1.60;;;;;;;11.13;100.00;98504.16;5020030;28;20045;-75
2024/01/02 10:33:00;;;;;;;11.68;1.90;;;;;;;11.11;100.00;98484.22;5017122;28;20022;-76
2024/01/02 10:35:45;;;;;;;10.77;2.10;;;;;;;11.14;100.00;98480.75;5034116;28;20045;-75
2024/01/02 10:38:14;;;;;;;7.63;1.48;;;;;;;11.12;100.00;98483.91;5014498;28;20124;-75
2024/01/02 10:40:42;;;;;;;8.70;1.73;;;;;;;11.13;100.00;98487.47;5019718;28;20030;-75
2024/01/02 10:43:30;;;;;;;8.13;1.75;;;;;;;11.15;100.00;98477.66;5020701;28;20037;-74
2024/01/02 10:46:09;;;;;;;8.63;1.48;;;;;;;11.15;100.00;98485.16;5016836;28;20422;-74
2024/01/02 10:48:45;;;;;;;8.77;2.17;;;;;;;11.15;100.00;98487.94;5068167;28;20029;-74
2024/01/02 10:51:21;;;;;;;9.57;1.70;;;;;;;11.15;100.00;98474.06;5017037;28;20022;-74
2024/01/02 10:54:03;;;;;;;6.50;1.70;;;;;;;11.17;100.00;98480.06;5019525;28;20033;-74
2024/01/02 10:56:52;;;;;;;8.23;1.83;;;;;;;11.17;100.00;98464.22;5035087;28;20064;-74
2024/01/02 10:59:42;;;;;;;9.82;1.80;;;;;;;11.19;100.00;98477.75;5016394;28;20026;-74
2024/01/02 11:02:53;;;;;;;10.68;1.70;;;;;;;11.22;100.00;98435.38;5023090;28;20034;-74
2024/01/02 11:05:38;;;;;;;7.85;1.83;;;;;;;11.18;100.00;98434.47;4995542;28;20054;-74
2024/01/02 11:08:14;;;;;;;17.42;2.42;;;;;;;11.21;100.00;98433.75;4961287;28;20034;-74
2024/01/02 11:10:59;;;;;;;9.13;2.00;;;;;;;11.19;100.00;98403.53;5005676;28;20058;-74
2024/01/02 11:13:25;;;;;;;14.05;2.28;;;;;;;11.22;100.00;98429.00;4995370;28;20040;-75
2024/01/02 11:16:02;;;;;;;13.65;1.63;;;;;;;11.21;100.00;98417.09;4995050;28;20038;-74
2024/01/02 11:18:30;;;;;;;14.57;2.22;;;;;;;11.19;100.00;98388.84;4963149;28;20117;-75
2024/01/02 11:21:21;;;;;;;15.85;2.35;;;;;;;11.23;100.00;98400.06;4946241;28;20070;-74
2024/01/02 11:23:49;;;;;;;16.42;2.33;;;;;;;11.23;100.00;98389.78;4975426;28;20073;-74
2024/01/02 11:26:24;;;;;;;10.50;2.08;;;;;;;11.28;100.00;98392.31;4977461;28;20117;-74